Time;durP1;ratioP1;P1;durP2;ratioP2;P2;SDS_P1;SDS_P2;PMS_P1;PMS_P2;Temp;Humidity;BMP_temperature;BMP_pressure;BME280_temperature;BME280_humidity;BME280_pressure;Samples;Min_cycle;Max_cycle;Signal;HPM_P1;HPM_P2
2021/04/24 00:01:56;;;;;;;3.00;2.27;;;;;;;15.94;52.01;99802.76;1783588;79;21136;-71
2021/04/24 00:04:26;;;;;;;2.33;1.90;;;;;;;15.92;52.00;99811.52;1790448;79;21197;-71
2021/04/24 00:06:53;;;;;;;2.72;1.85;;;;;;;15.90;52.01;99805.02;1805794;79;21521;-70
2021/04/24 00:09:21;;;;;;;4.42;2.40;;;;;;;15.89;52.01;99800.67;1807287;79;21270;-71
2021/04/24 00:11:48;;;;;;;2.50;2.12;;;;;;;15.87;52.03;99804.06;1798137;78;21508;-71
2021/04/24 00:14:17;;;;;;;2.30;1.90;;;;;;;15.87;52.05;99799.22;1807318;78;21179;-71
2021/04/24 00:16:44;;;;;;;2.95;2.40;;;;;;;15.85;52.05;99799.94;1807322;78;21132;-73
2021/04/24 00:19:12;;;;;;;2.77;2.10;;;;;;;15.84;52.04;99805.82;1807302;78;21191;-72
2021/04/24 00:21:40;;;;;;;2.47;1.90;;;;;;;15.82;52.02;99803.86;1809155;78;21160;-71
2021/04/24 00:24:09;;;;;;;2.22;1.82;;;;;;;15.81;52.06;99808.89;1785935;78;21627;-70
2021/04/24 00:26:37;;;;;;;2.70;2.15;;;;;;;15.79;52.03;99805.59;1789640;78;21180;-70
2021/04/24 00:29:06;;;;;;;2.77;2.42;;;;;;;15.78;52.05;99802.61;1800554;76;21184;-69
2021/04/24 00:31:52;;;;;;;2.33;1.90;;;;;;;15.81;52.08;99806.73;1775842;77;28772;-70
2021/04/24 00:34:19;;;;;;;2.45;1.85;;;;;;;15.77;52.05;99810.84;1737332;81;21152;-70
2021/04/24 00:36:50;;;;;;;2.85;1.90;;;;;;;15.75;52.07;99815.57;1737685;81;21373;-70
2021/04/24 00:39:19;;;;;;;2.12;1.92;;;;;;;15.75;52.05;99810.22;1739755;81;21181;-69
2021/04/24 00:41:48;;;;;;;2.55;1.92;;;;;;;15.73;52.05;99814.42;1739725;82;21141;-70
2021/04/24 00:44:16;;;;;;;4.30;2.52;;;;;;;15.72;52.08;99811.39;1739712;81;21150;-70
2021/04/24 00:46:46;;;;;;;2.10;1.85;;;;;;;15.70;52.05;99802.24;1739808;81;21162;-69
2021/04/24 00:49:15;;;;;;;2.00;1.80;;;;;;;15.69;52.11;99811.81;1739807;82;21371;-71
2021/04/24 00:51:42;;;;;;;2.52;1.85;;;;;;;15.68;52.09;99813.67;1739678;82;21209;-69
2021/04/24 00:54:10;;;;;;;2.42;1.95;;;;;;;15.67;52.09;99815.20;1739747;82;21190;-69
2021/04/24 00:56:38;;;;;;;2.50;2.00;;;;;;;15.65;52.10;99812.72;1739732;82;21238;-70
2021/04/24 00:59:06;;;;;;;2.40;1.90;;;;;;;15.65;52.12;99810.56;1739703;82;21166;-71
2021/04/24 01:01:34;;;;;;;3.12;2.22;;;;;;;15.64;52.10;99806.22;1739734;82;21428;-70
2021/04/24 01:04:02;;;;;;;2.27;1.80;;;;;;;15.63;52.12;99803.23;1739606;82;21174;-70
2021/04/24 01:06:32;;;;;;;2.47;1.72;;;;;;;15.62;52.13;99802.91;1717458;82;21199;-70
2021/04/24 01:09:05;;;;;;;2.05;1.87;;;;;;;15.61;52.12;99805.30;1739677;81;21169;-70
2021/04/24 01:11:32;;;;;;;2.75;2.30;;;;;;;15.59;52.13;99812.18;1739766;81;22051;-69
2021/04/24 01:14:01;;;;;;;2.00;1.77;;;;;;;15.59;52.15;99807.31;1739666;82;21582;-71
2021/04/24 01:16:31;;;;;;;2.27;1.47;;;;;;;15.58;52.15;99810.52;1739578;82;21808;-69
2021/04/24 01:18:58;;;;;;;1.80;1.60;;;;;;;15.56;52.17;99803.72;1739647;82;21169;-70
2021/04/24 01:21:27;;;;;;;2.72;1.95;;;;;;;15.54;52.17;99802.05;1708983;82;21109;-70
2021/04/24 01:23:57;;;;;;;2.52;1.87;;;;;;;15.53;52.18;99795.05;1739722;82;21145;-69
2021/04/24 01:26:28;;;;;;;2.00;1.80;;;;;;;15.53;52.17;99804.95;1739799;82;21364;-70
2021/04/24 01:28:58;;;;;;;2.62;2.12;;;;;;;15.52;52.19;99800.60;1739604;82;21133;-70
2021/04/24 01:31:25;;;;;;;1.65;1.55;;;;;;;15.50;52.21;99807.48;1755114;81;21144;-71
2021/04/24 01:33:56;;;;;;;2.58;2.08;;;;;;;15.50;52.21;99799.98;1727038;82;21176;-70
2021/04/24 01:36:23;;;;;;;1.85;1.50;;;;;;;15.49;52.22;99805.00;1741093;81;21168;-71
2021/04/24 01:38:52;;;;;;;2.20;1.45;;;;;;;15.48;52.20;99804.70;1761529;81;21206;-71
2021/04/24 01:41:20;;;;;;;2.00;1.72;;;;;;;15.46;52.21;99804.90;1724907;82;21795;-70
2021/04/24 01:43:55;;;;;;;2.62;1.70;;;;;;;15.45;52.21;99803.27;1740473;81;21605;-70
2021/04/24 01:46:23;;;;;;;2.20;1.92;;;;;;;15.45;52.24;99806.43;1761125;81;21164;-71
2021/04/24 01:48:51;;;;;;;3.12;1.60;;;;;;;15.43;52.20;99808.48;1724510;82;21180;-72
2021/04/24 01:51:19;;;;;;;2.52;1.62;;;;;;;15.43;52.23;99807.99;1740446;81;21369;-70
2021/04/24 01:53:48;;;;;;;1.87;1.77;;;;;;;15.41;52.23;99804.66;1760955;81;21164;-70
2021/04/24 01:56:17;;;;;;;2.35;1.95;;;;;;;15.41;52.24;99801.98;1722887;82;21149;-71
2021/04/24 01:58:45;;;;;;;2.35;1.60;;;;;;;15.40;52.22;99799.53;1740460;81;21144;-71
2021/04/24 02:01:12;;;;;;;2.87;1.80;;;;;;;15.39;52.25;99799.20;1761052;81;21208;-70
2021/04/24 02:03:40;;;;;;;2.00;1.52;;;;;;;15.37;52.29;99802.59;1724601;82;21358;-70
2021/04/24 02:06:07;;;;;;;1.80;1.40;;;;;;;15.36;52.28;99804.45;1740392;81;21145;-70
2021/04/24 02:08:42;;;;;;;2.60;1.70;;;;;;;15.35;52.31;99802.78;1760928;81;21173;-70
2021/04/24 02:11:10;;;;;;;2.95;2.08;;;;;;;15.34;52.26;99801.95;1760962;80;21152;-70
2021/04/24 02:13:41;;;;;;;2.08;1.60;;;;;;;15.33;52.23;99802.16;1724536;82;21133;-69
2021/04/24 02:16:10;;;;;;;1.87;1.40;;;;;;;15.31;52.27;99806.36;1740499;81;21370;-71
2021/04/24 02:18:41;;;;;;;1.60;1.50;;;;;;;15.30;52.29;99807.91;1760744;81;21187;-72
2021/04/24 02:21:08;;;;;;;2.00;1.52;;;;;;;15.29;52.33;99807.59;1724599;82;21656;-71
2021/04/24 02:23:38;;;;;;;2.00;1.65;;;;;;;15.28;52.34;99809.97;1740443;81;21157;-70
2021/04/24 02:26:07;;;;;;;2.00;1.72;;;;;;;15.27;52.32;99810.97;1761018;81;21237;-71
2021/04/24 02:28:35;;;;;;;2.05;1.52;;;;;;;15.26;52.33;99803.95;1724558;82;21418;-71
2021/04/24 02:31:02;;;;;;;2.10;1.62;;;;;;;15.24;52.34;99804.17;1758380;79;21128;-71
2021/04/24 02:33:30;;;;;;;2.08;1.62;;;;;;;15.24;52.36;99803.33;1784797;80;21684;-70
2021/04/24 02:35:59;;;;;;;1.87;1.50;;;;;;;15.23;52.34;99800.35;1784736;80;21157;-70
2021/04/24 02:38:30;;;;;;;2.02;1.50;;;;;;;15.21;52.37;99807.23;1784850;80;21204;-71
2021/04/24 02:41:04;;;;;;;1.95;1.45;;;;;;;15.21;52.35;99803.73;1784731;80;22185;-71
2021/04/24 02:43:32;;;;;;;2.20;1.70;;;;;;;15.21;52.37;99806.41;1784809;80;21196;-71
2021/04/24 02:46:01;;;;;;;1.87;1.55;;;;;;;15.19;52.43;99807.12;1784723;80;21569;-71
2021/04/24 02:48:30;;;;;;;1.67;1.50;;;;;;;15.17;52.45;99817.20;1784815;80;21164;-71
2021/04/24 02:50:58;;;;;;;2.00;1.80;;;;;;;15.16;52.45;99812.86;1784730;80;21117;-71
2021/04/24 02:53:26;;;;;;;1.90;1.50;;;;;;;15.14;52.42;99811.22;1784723;80;21171;-72
2021/04/24 02:55:53;;;;;;;1.87;1.67;;;;;;;15.13;52.42;99812.23;1784713;80;21165;-72
2021/04/24 02:58:20;;;;;;;2.52;1.60;;;;;;;15.12;52.49;99815.94;1784748;80;21664;-71
2021/04/24 03:00:48;;;;;;;1.50;1.40;;;;;;;15.11;52.49;99818.81;1784682;80;21160;-72
2021/04/24 03:03:17;;;;;;;2.37;1.87;;;;;;;15.11;52.49;99824.98;1784785;80;21237;-71
2021/04/24 03:05:44;;;;;;;1.62;1.42;;;;;;;15.11;52.48;99821.48;1784802;80;22279;-71
2021/04/24 03:08:12;;;;;;;2.42;1.62;;;;;;;15.10;52.51;99815.31;1784807;80;21661;-70
2021/04/24 03:10:41;;;;;;;2.17;1.60;;;;;;;15.10;52.46;99822.48;1784657;80;21212;-71
2021/04/24 03:13:09;;;;;;;1.75;1.30;;;;;;;15.08;52.51;99820.52;1784702;80;21160;-73
2021/04/24 03:15:38;;;;;;;1.80;1.40;;;;;;;15.06;52.47;99818.55;1784754;80;21172;-70
2021/04/24 03:18:06;;;;;;;1.85;1.37;;;;;;;15.07;52.54;99819.70;1784670;80;21617;-71
2021/04/24 03:20:33;;;;;;;1.77;1.45;;;;;;;15.07;52.55;99827.73;1784684;80;21160;-71
2021/04/24 03:23:04;;;;;;;1.98;1.70;;;;;;;15.07;52.60;99826.91;1784701;80;21200;-71
2021/04/24 03:25:32;;;;;;;1.77;1.40;;;;;;;15.07;52.59;99829.59;1784824;80;21140;-70
2021/04/24 03:28:00;;;;;;;2.70;1.70;;;;;;;15.06;52.59;99824.73;1784815;80;21128;-72
2021/04/24 03:30:27;;;;;;;1.57;1.47;;;;;;;15.07;52.55;99833.60;1784618;80;21354;-70
2021/04/24 03:32:55;;;;;;;1.37;1.20;;;;;;;15.06;52.56;99834.61;1784746;80;21616;-71
2021/04/24 03:35:26;;;;;;;4.05;1.98;;;;;;;15.06;52.56;99842.12;1784792;80;21109;-69
2021/04/24 03:37:57;;;;;;;2.20;1.47;;;;;;;15.06;52.60;99836.77;1734359;81;21139;-70
2021/04/24 03:40:25;;;;;;;1.62;1.30;;;;;;;15.05;52.61;99839.14;1734056;82;21180;-70
2021/04/24 03:42:54;;;;;;;2.12;1.70;;;;;;;15.05;52.61;99843.16;1713077;81;21405;-71
2021/04/24 03:45:22;;;;;;;3.33;1.70;;;;;;;15.05;52.64;99848.50;1733963;82;21173;-70
2021/04/24 03:47:55;;;;;;;2.45;1.30;;;;;;;15.05;52.62;99851.18;1713586;82;21619;-71
2021/04/24 03:50:24;;;;;;;1.90;1.40;;;;;;;15.03;52.68;99851.89;1714652;82;21213;-71
2021/04/24 03:52:53;;;;;;;1.90;1.60;;;;;;;15.04;52.63;99857.53;1714432;82;21211;-70
2021/04/24 03:55:23;;;;;;;1.90;1.50;;;;;;;15.04;52.63;99860.73;1704777;82;21649;-69
2021/04/24 03:57:54;;;;;;;1.75;1.32;;;;;;;15.04;52.63;99860.73;1722705;82;21154;-71
2021/04/24 04:00:26;;;;;;;2.37;1.50;;;;;;;15.03;52.67;99871.95;1706268;82;21179;-70
2021/04/24 04:03:02;;;;;;;1.85;1.32;;;;;;;15.03;52.71;99870.61;1704778;82;21202;-72
2021/04/24 04:05:35;;;;;;;1.45;1.25;;;;;;;15.03;52.70;99866.60;1704868;82;21687;-70
2021/04/24 04:08:03;;;;;;;2.02;1.67;;;;;;;15.04;52.70;99871.44;1722591;82;22410;-69
2021/04/24 04:10:32;;;;;;;1.47;1.32;;;;;;;15.03;52.67;99867.94;1727476;82;21228;-70
2021/04/24 04:12:59;;;;;;;2.45;1.77;;;;;;;15.02;52.69;99864.94;1720692;82;21165;-70
2021/04/24 04:15:27;;;;;;;1.57;1.30;;;;;;;15.04;52.71;99875.45;1708896;82;21182;-70
2021/04/24 04:18:08;;;;;;;1.52;1.20;;;;;;;15.03;52.68;99873.30;1718507;82;21673;-71
2021/04/24 04:20:44;;;;;;;1.70;1.50;;;;;;;15.04;52.71;99876.78;1734075;82;21461;-70
2021/04/24 04:23:12;;;;;;;1.67;1.25;;;;;;;15.04;52.71;99870.09;1718128;82;21167;-72
2021/04/24 04:25:40;;;;;;;2.12;1.60;;;;;;;15.04;52.76;99878.13;1704786;82;21188;-70
2021/04/24 04:28:08;;;;;;;1.70;1.40;;;;;;;15.04;52.77;99878.13;1704639;82;21186;-71
2021/04/24 04:30:36;;;;;;;2.92;1.70;;;;;;;15.04;52.74;99880.80;1704667;82;21179;-69
2021/04/24 04:33:04;;;;;;;3.12;1.55;;;;;;;15.05;52.76;99882.47;1708802;83;21608;-70
2021/04/24 04:35:33;;;;;;;1.98;1.52;;;;;;;15.05;52.71;99881.95;1725304;83;21182;-69
2021/04/24 04:38:00;;;;;;;1.65;1.55;;;;;;;15.07;52.74;99884.44;1706594;83;21330;-70
2021/04/24 04:40:27;;;;;;;1.75;1.30;;;;;;;15.07;52.76;99886.59;1725959;82;21149;-71
2021/04/24 04:42:55;;;;;;;1.72;1.60;;;;;;;15.09;52.77;99879.72;1697973;83;21172;-70
2021/04/24 04:45:23;;;;;;;3.00;1.40;;;;;;;15.09;52.73;99871.17;1702643;83;22765;-70
2021/04/24 04:47:50;;;;;;;1.80;1.70;;;;;;;15.09;52.71;99871.17;1696799;83;21216;-70
2021/04/24 04:50:30;;;;;;;1.42;1.27;;;;;;;15.11;52.70;99879.01;1716007;83;21355;-71
2021/04/24 04:52:58;;;;;;;1.80;1.42;;;;;;;15.11;52.70;99877.16;1696947;83;21628;-70
2021/04/24 04:55:26;;;;;;;1.90;1.52;;;;;;;15.11;52.64;99874.48;1697042;83;21141;-72
2021/04/24 04:57:54;;;;;;;1.55;1.30;;;;;;;15.12;52.69;99873.95;1715237;83;22141;-74
2021/04/24 05:00:23;;;;;;;1.57;1.32;;;;;;;15.13;52.68;99881.80;1718833;82;21185;-70
2021/04/24 05:02:50;;;;;;;2.00;1.60;;;;;;;15.14;52.69;99871.42;1713407;83;21654;-71
2021/04/24 05:05:18;;;;;;;1.95;1.50;;;;;;;15.16;52.70;99878.41;1725985;83;21118;-71
2021/04/24 05:07:48;;;;;;;1.65;1.45;;;;;;;15.17;52.68;99876.07;1711705;82;21145;-70
2021/04/24 05:10:18;;;;;;;1.65;1.45;;;;;;;15.19;52.64;99877.52;1695981;83;21220;-70
2021/04/24 05:12:45;;;;;;;2.35;1.50;;;;;;;15.20;52.62;99877.84;1709718;83;21606;-70
2021/04/24 05:15:14;;;;;;;2.08;1.50;;;;;;;15.22;52.56;99874.95;1724280;83;21161;-71
2021/04/24 05:17:41;;;;;;;2.30;1.42;;;;;;;15.24;52.56;99867.55;1708069;83;21602;-70
2021/04/24 05:20:11;;;;;;;2.20;1.40;;;;;;;15.26;52.52;99873.54;1705865;83;21577;-70
2021/04/24 05:22:39;;;;;;;1.70;1.60;;;;;;;15.28;52.51;99872.86;1697083;83;21321;-70
2021/04/24 05:25:07;;;;;;;1.82;1.67;;;;;;;15.30;52.45;99873.48;1696973;83;21161;-70
2021/04/24 05:27:36;;;;;;;2.40;1.80;;;;;;;15.32;52.41;99874.94;1724657;83;21235;-69
2021/04/24 05:30:17;;;;;;;1.77;1.50;;;;;;;15.36;52.38;99872.70;1710318;81;21102;31
2021/04/24 05:32:44;;;;;;;2.02;1.37;;;;;;;15.39;52.73;99872.81;1702008;82;21218;-70
2021/04/24 05:35:14;;;;;;;1.45;1.35;;;;;;;15.42;52.78;99859.05;1701518;82;21203;-70
2021/04/24 05:37:42;;;;;;;2.12;1.42;;;;;;;15.46;52.70;99865.66;1701599;82;21150;-70
2021/04/24 05:40:10;;;;;;;1.55;1.30;;;;;;;15.48;52.66;99868.96;1738653;80;21194;-71
2021/04/24 05:42:37;;;;;;;1.57;1.30;;;;;;;15.50;52.54;99864.23;1730290;80;21202;-70
2021/04/24 05:45:12;;;;;;;1.60;1.35;;;;;;;15.52;52.51;99868.88;1730263;80;21451;-71
2021/04/24 05:47:48;;;;;;;1.55;1.22;;;;;;;15.53;52.46;99870.03;1730720;80;21764;-71
2021/04/24 05:50:20;;;;;;;1.92;1.55;;;;;;;15.54;52.52;99878.36;1730657;80;21230;-70
2021/04/24 05:52:49;;;;;;;1.70;1.20;;;;;;;15.56;52.44;99882.70;1730503;80;21142;-70
2021/04/24 05:55:18;;;;;;;2.12;1.60;;;;;;;15.56;52.37;99869.31;1730599;80;21170;-71
2021/04/24 05:57:45;;;;;;;1.95;1.50;;;;;;;15.56;52.34;99879.50;1730730;80;21146;-70
2021/04/24 06:00:18;;;;;;;2.10;1.60;;;;;;;15.58;52.19;99876.11;1730696;80;21452;-70
2021/04/24 06:02:45;;;;;;;1.87;1.20;;;;;;;15.61;52.18;99878.93;1730765;80;21205;-71
2021/04/24 06:05:13;;;;;;;2.05;1.42;;;;;;;15.63;52.06;99875.54;1730720;80;21206;-69
2021/04/24 06:07:42;;;;;;;1.50;1.30;;;;;;;15.65;52.00;99872.16;1730624;80;21165;-69
2021/04/24 06:10:14;;;;;;;1.75;1.57;;;;;;;15.68;51.98;99875.75;1730688;80;21191;-70
2021/04/24 06:12:41;;;;;;;1.67;1.30;;;;;;;15.69;51.94;99862.17;1730769;80;21424;-70
2021/04/24 06:15:09;;;;;;;1.22;1.12;;;;;;;15.73;51.93;99877.37;1730628;80;22080;-71
2021/04/24 06:17:38;;;;;;;2.40;2.05;;;;;;;15.74;51.82;99872.31;1729646;80;21255;-70
2021/04/24 06:20:09;;;;;;;1.72;1.32;;;;;;;15.75;51.83;99873.98;1730181;80;21657;-70
2021/04/24 06:22:38;;;;;;;1.55;1.37;;;;;;;15.77;51.78;99871.92;1730464;80;21224;-70
2021/04/24 06:25:15;;;;;;;1.82;1.40;;;;;;;15.78;51.71;99872.74;1730716;80;21198;-70
2021/04/24 06:27:42;;;;;;;2.52;1.40;;;;;;;15.79;51.70;99872.55;1730740;80;21202;-71
2021/04/24 06:30:12;;;;;;;2.20;1.50;;;;;;;15.80;51.69;99868.86;1730627;80;21385;-69
2021/04/24 06:32:40;;;;;;;1.55;1.30;;;;;;;15.83;51.64;99869.78;1730622;80;22219;-71
2021/04/24 06:35:10;;;;;;;1.22;1.12;;;;;;;15.84;51.64;99868.77;1730723;80;21150;-71
2021/04/24 06:37:37;;;;;;;2.50;1.40;;;;;;;15.86;51.56;99865.38;1730783;80;22188;-72
2021/04/24 06:40:07;;;;;;;1.60;1.30;;;;;;;15.88;51.51;99863.33;1730661;80;21213;-71
2021/04/24 06:42:35;;;;;;;1.95;1.47;;;;;;;15.92;51.47;99863.76;1730744;80;21607;-74
2021/04/24 06:45:05;;;;;;;1.65;1.30;;;;;;;15.94;51.44;99864.91;1730559;80;21173;-71
2021/04/24 06:47:32;;;;;;;1.77;1.40;;;;;;;15.96;51.43;99869.02;1730707;80;21170;-71
2021/04/24 06:50:00;;;;;;;1.52;1.15;;;;;;;15.98;51.40;99870.17;1730672;80;21371;-70
2021/04/24 06:52:27;;;;;;;2.75;1.75;;;;;;;16.00;51.35;99870.80;1730599;80;21162;-71
2021/04/24 06:54:55;;;;;;;2.25;1.60;;;;;;;16.02;51.29;99879.45;1730590;80;21170;-72
2021/04/24 06:57:22;;;;;;;2.08;1.60;;;;;;;16.04;51.17;99875.54;1730762;80;22121;-71
2021/04/24 06:59:50;;;;;;;1.25;1.15;;;;;;;16.06;51.14;99874.83;1730685;80;21609;-72
2021/04/24 07:02:17;;;;;;;2.00;1.40;;;;;;;16.09;51.10;99877.64;1730684;80;21233;-72
2021/04/24 07:04:45;;;;;;;1.55;1.30;;;;;;;16.11;51.06;99868.36;1730489;80;21245;-73
2021/04/24 07:07:13;;;;;;;2.37;1.57;;;;;;;16.13;51.01;99872.19;1730654;80;21155;-70
2021/04/24 07:09:40;;;;;;;1.77;1.60;;;;;;;16.15;50.93;99884.87;1730712;80;21059;-71
2021/04/24 07:12:08;;;;;;;1.92;1.40;;;;;;;16.17;50.94;99894.87;1730608;80;21158;-70
2021/04/24 07:14:36;;;;;;;1.77;1.20;;;;;;;16.17;50.87;99886.83;1730756;80;22262;-72
2021/04/24 07:17:04;;;;;;;3.50;1.37;;;;;;;16.20;50.85;99888.27;1730569;80;21062;-71
2021/04/24 07:19:32;;;;;;;6.90;1.85;;;;;;;16.22;50.72;99885.69;1730672;80;21190;-71
2021/04/24 07:22:00;;;;;;;3.15;1.40;;;;;;;16.24;50.71;99884.98;1730554;80;21128;-71
2021/04/24 07:24:27;;;;;;;1.00;0.90;;;;;;;16.25;50.70;99879.94;1730682;80;21665;-69
2021/04/24 07:26:54;;;;;;;1.67;1.32;;;;;;;16.29;50.67;99881.71;1730594;80;21354;-70
2021/04/24 07:29:22;;;;;;;1.12;1.02;;;;;;;16.29;50.65;99877.16;1730580;80;21605;-71
2021/04/24 07:31:49;;;;;;;1.32;1.10;;;;;;;16.31;50.51;99887.17;1740288;80;21548;-71
2021/04/24 07:34:17;;;;;;;1.30;1.20;;;;;;;16.34;50.53;99894.49;1756852;80;21208;-70
2021/04/24 07:36:45;;;;;;;1.30;1.10;;;;;;;16.35;50.48;99898.32;1756858;80;21191;-70
2021/04/24 07:39:13;;;;;;;1.87;0.80;;;;;;;16.37;50.44;99902.14;1756785;80;21189;-71
2021/04/24 07:41:40;;;;;;;1.98;1.45;;;;;;;16.38;50.40;99898.42;1756877;80;21187;-69
2021/04/24 07:44:08;;;;;;;1.20;1.10;;;;;;;16.40;50.37;99893.19;1756755;80;21195;-70
2021/04/24 07:46:36;;;;;;;1.75;1.30;;;;;;;16.39;50.33;99900.91;1756873;80;21159;-71
2021/04/24 07:49:04;;;;;;;2.60;1.30;;;;;;;16.41;50.32;99906.07;1756825;80;21147;-70
2021/04/24 07:51:32;;;;;;;1.92;1.30;;;;;;;16.42;50.25;99906.40;1756788;80;21349;-69
2021/04/24 07:54:00;;;;;;;1.15;1.05;;;;;;;16.43;50.22;99906.70;1756753;80;21168;-70
2021/04/24 07:56:28;;;;;;;3.10;1.20;;;;;;;16.44;50.16;99904.34;1756798;80;21152;-69
2021/04/24 07:58:56;;;;;;;1.25;1.15;;;;;;;16.47;50.14;99911.96;1756684;80;21643;-70
2021/04/24 08:01:23;;;;;;;2.87;1.35;;;;;;;16.49;50.09;99909.91;1756741;80;21576;-71
2021/04/24 08:03:50;;;;;;;1.55;1.10;;;;;;;16.51;50.05;99911.38;1756692;80;21439;-70
2021/04/24 08:06:19;;;;;;;1.17;1.00;;;;;;;16.53;50.00;99913.83;1756739;80;21167;-70
2021/04/24 08:08:47;;;;;;;1.07;0.98;;;;;;;16.55;49.91;99920.34;1756709;80;21164;-70
2021/04/24 08:11:16;;;;;;;1.30;1.10;;;;;;;16.55;49.87;99913.11;1756763;80;21203;-71
2021/04/24 08:13:43;;;;;;;1.42;1.10;;;;;;;16.58;49.82;99907.35;1756841;80;21136;-70
2021/04/24 08:16:12;;;;;;;1.02;0.93;;;;;;;16.60;49.86;99916.55;1756780;80;21206;-71
2021/04/24 08:18:40;;;;;;;1.62;1.12;;;;;;;16.62;49.85;99912.61;1756784;80;21163;-70
2021/04/24 08:21:08;;;;;;;1.35;1.10;;;;;;;16.64;49.82;99915.92;1756823;80;21603;-70
2021/04/24 08:23:36;;;;;;;1.32;1.05;;;;;;;16.65;49.77;99926.13;1756746;80;21163;-71
2021/04/24 08:26:03;;;;;;;1.20;1.10;;;;;;;16.67;49.70;99924.09;1756746;80;21155;-71
2021/04/24 08:28:30;;;;;;;1.10;1.00;;;;;;;16.69;49.68;99918.01;1756868;80;21367;-71
2021/04/24 08:30:58;;;;;;;1.20;1.10;;;;;;;16.70;49.70;99920.47;1756765;80;21567;-70
2021/04/24 08:33:25;;;;;;;2.00;1.00;;;;;;;16.74;49.70;99926.77;1756733;80;21164;-70
2021/04/24 08:35:53;;;;;;;1.32;1.20;;;;;;;16.76;49.70;99923.38;1756775;80;21646;-71
2021/04/24 08:38:20;;;;;;;1.92;1.45;;;;;;;16.79;49.71;99930.50;1756866;80;22222;-71
2021/04/24 08:40:48;;;;;;;1.20;0.93;;;;;;;16.81;49.57;99933.80;1756726;80;21192;-71
2021/04/24 08:43:15;;;;;;;1.50;1.10;;;;;;;16.83;49.67;99938.48;1756712;80;21270;-71
2021/04/24 08:45:44;;;;;;;1.57;1.00;;;;;;;16.85;49.69;99943.13;1756819;80;21148;-72
2021/04/24 08:48:11;;;;;;;1.12;0.98;;;;;;;16.88;49.51;99937.36;1756818;80;21237;-71
2021/04/24 08:50:39;;;;;;;1.25;1.05;;;;;;;16.90;49.44;99936.64;1756842;80;21202;-72
2021/04/24 08:53:06;;;;;;;1.12;1.02;;;;;;;16.94;49.44;99940.23;1756912;80;21371;-71
2021/04/24 08:55:36;;;;;;;2.83;1.10;;;;;;;16.96;49.50;99939.02;1756987;80;21600;-71
2021/04/24 08:58:05;;;;;;;1.17;1.00;;;;;;;16.98;49.56;99936.95;1756934;80;21140;-69
2021/04/24 09:00:37;;;;;;;0.78;0.78;;;;;;;17.01;49.46;99937.05;1756962;80;21188;-70
2021/04/24 09:03:08;;;;;;;2.08;1.10;;;;;;;17.02;49.34;99946.77;1757009;80;21747;-71
2021/04/24 09:05:35;;;;;;;1.10;0.98;;;;;;;17.03;49.25;99943.86;1756297;80;22622;-71
2021/04/24 09:08:06;;;;;;;1.20;1.00;;;;;;;17.05;49.24;99938.30;1756841;80;21612;-71
2021/04/24 09:10:42;;;;;;;1.20;1.10;;;;;;;17.06;49.28;99927.36;1756950;80;21183;-70
2021/04/24 09:13:23;;;;;;;2.25;0.80;;;;;;;17.09;49.29;99946.23;1757011;80;21591;-71
2021/04/24 09:15:51;;;;;;;1.35;0.90;;;;;;;17.14;49.32;99933.56;1756980;80;21619;-71
2021/04/24 09:18:20;;;;;;;0.80;0.80;;;;;;;17.18;49.42;99930.77;1756961;80;21399;-72
2021/04/24 09:20:57;;;;;;;0.88;0.88;;;;;;;17.20;49.40;99931.39;1746919;80;21679;-71
2021/04/24 09:23:35;;;;;;;1.05;1.00;;;;;;;17.24;49.47;99929.94;1756969;80;21164;-71
2021/04/24 09:26:07;;;;;;;0.90;0.90;;;;;;;17.27;49.32;99940.28;1756400;80;21203;-71
2021/04/24 09:28:42;;;;;;;0.85;0.82;;;;;;;17.29;49.34;99934.18;1756958;80;21157;-71
2021/04/24 09:31:19;;;;;;;0.70;0.70;;;;;;;17.32;49.25;99945.02;1756988;80;22280;-71
2021/04/24 09:33:57;;;;;;;1.62;1.10;;;;;;;17.32;49.16;99947.17;1756866;80;21196;-70
2021/04/24 09:36:34;;;;;;;1.90;0.80;;;;;;;17.35;49.12;99954.01;1756952;80;21647;-70
2021/04/24 09:39:09;;;;;;;1.37;1.10;;;;;;;17.35;49.12;99960.20;1756917;80;21143;-71
2021/04/24 09:41:43;;;;;;;1.00;0.90;;;;;;;17.36;48.99;99956.45;1756978;80;21163;-71
2021/04/24 09:44:14;;;;;;;1.20;1.10;;;;;;;17.38;48.90;99949.02;1756857;80;21199;-70
2021/04/24 09:46:56;;;;;;;1.07;0.98;;;;;;;17.42;48.72;99945.41;1756882;80;21600;-71
2021/04/24 09:49:31;;;;;;;1.22;1.00;;;;;;;17.48;48.66;99937.86;1757110;80;21136;-71
2021/04/24 09:52:05;;;;;;;1.55;1.20;;;;;;;17.54;48.62;99943.77;1756859;80;21142;-71
2021/04/24 09:54:43;;;;;;;1.35;1.20;;;;;;;17.61;48.78;99947.77;1757013;80;21512;-71
2021/04/24 09:57:15;;;;;;;1.12;0.93;;;;;;;17.64;48.93;99954.08;1756990;80;21441;-70
2021/04/24 10:00:10;;;;;;;1.00;0.90;;;;;;;17.68;48.47;99958.00;1756795;80;21640;-71
2021/04/24 10:02:45;;;;;;;0.90;0.90;;;;;;;17.74;48.19;99959.02;1756801;80;21186;-71
2021/04/24 10:05:22;;;;;;;0.93;0.90;;;;;;;17.78;48.23;99955.69;1756802;80;21180;-71
2021/04/24 10:07:54;;;;;;;1.10;1.00;;;;;;;17.85;48.25;99956.55;1756934;80;21617;-70
2021/04/24 10:10:37;;;;;;;1.82;1.07;;;;;;;17.95;48.10;99948.56;1756954;80;21379;-71
2021/04/24 10:13:09;;;;;;;0.80;0.80;;;;;;;18.04;48.17;99934.68;1756877;80;21194;-70
2021/04/24 10:15:44;;;;;;;1.50;1.30;;;;;;;18.17;48.33;99938.34;1757145;80;21668;-73
2021/04/24 10:18:14;;;;;;;1.02;0.90;;;;;;;18.30;48.44;99942.85;1756965;80;21172;-70
2021/04/24 10:20:44;;;;;;;1.10;1.00;;;;;;;18.43;48.63;99944.14;1756865;80;21201;-71
2021/04/24 10:23:13;;;;;;;1.17;1.02;;;;;;;18.54;48.66;99944.77;1757044;80;22369;-70
2021/04/24 10:25:41;;;;;;;1.12;1.07;;;;;;;18.66;48.56;99949.80;1756861;80;21151;-71
2021/04/24 10:28:08;;;;;;;1.10;1.00;;;;;;;18.78;48.68;99951.80;1756914;80;21571;-71
2021/04/24 10:30:38;;;;;;;0.90;0.90;;;;;;;18.89;48.72;99948.95;1756890;80;21490;-72
2021/04/24 10:33:06;;;;;;;1.65;1.00;;;;;;;18.99;48.55;99954.70;1756776;80;21208;-71
2021/04/24 10:35:33;;;;;;;1.02;1.00;;;;;;;19.07;48.33;99960.34;1738879;80;22322;-71
2021/04/24 10:40:47;;;;;;;0.85;0.85;;;;;;;19.26;48.36;99955.31;1839721;75;22696;-70
2021/04/24 10:43:20;;;;;;;0.90;0.90;;;;;;;19.30;48.34;99957.05;1787260;78;21104;-71
2021/04/24 10:45:48;;;;;;;0.75;0.75;;;;;;;19.42;48.25;99962.02;1786319;77;21321;-71
2021/04/24 10:48:26;;;;;;;1.20;1.10;;;;;;;19.57;48.43;99950.91;1779544;78;21633;-71
2021/04/24 10:50:55;;;;;;;1.30;0.98;;;;;;;19.70;48.42;99946.73;1792895;79;20996;-71
2021/04/24 10:53:26;;;;;;;0.88;0.88;;;;;;;19.85;48.36;99946.38;1786188;78;21162;-71
2021/04/24 10:55:59;;;;;;;0.90;0.90;;;;;;;19.99;48.57;99943.00;1773882;79;21162;-72
2021/04/24 10:58:29;;;;;;;0.90;0.90;;;;;;;20.11;49.19;99949.31;1802555;78;21855;-71
2021/04/24 11:01:04;;;;;;;0.90;0.90;;;;;;;20.23;49.29;99945.33;1774279;79;21158;-71
2021/04/24 11:03:42;;;;;;;1.67;0.93;;;;;;;20.32;49.32;99941.28;1809770;79;21144;-71
2021/04/24 11:06:15;;;;;;;0.82;0.82;;;;;;;20.41;49.52;99939.88;1817334;79;21145;-72
2021/04/24 11:08:44;;;;;;;1.45;0.98;;;;;;;20.53;50.17;99944.52;1783211;78;21611;-71
2021/04/24 11:11:15;;;;;;;1.02;0.98;;;;;;;20.59;49.49;99953.92;1791957;79;21355;-72
2021/04/24 11:13:55;;;;;;;0.95;0.88;;;;;;;20.65;49.01;99946.78;1810318;79;21401;-72
2021/04/24 11:16:31;;;;;;;0.90;0.90;;;;;;;20.68;48.16;99949.54;1791816;78;21614;-72
2021/04/24 11:18:53;;;;;;;1.27;0.98;;;;;;;20.69;47.83;99956.59;1813533;78;21181;-72
2021/04/24 11:21:26;;;;;;;0.90;0.90;;;;;;;20.69;47.63;99958.77;1814248;78;21666;-72
2021/04/24 11:23:58;;;;;;;1.10;0.90;;;;;;;20.68;47.29;99963.85;1816857;78;21581;-71
2021/04/24 11:26:37;;;;;;;0.85;0.85;;;;;;;20.66;47.05;99967.31;1817586;79;21113;-71
2021/04/24 11:29:13;;;;;;;1.50;0.72;;;;;;;20.66;47.03;99969.19;1817305;79;21157;-72
2021/04/24 11:31:57;;;;;;;0.88;0.88;;;;;;;20.69;47.72;99959.30;1802252;78;21117;-70
2021/04/24 11:34:46;;;;;;;0.80;0.80;;;;;;;20.74;47.65;99962.11;1780127;79;21146;-70
2021/04/24 11:37:24;;;;;;;0.90;0.85;;;;;;;20.77;47.27;99967.88;1780302;78;21363;-70
2021/04/24 11:40:19;;;;;;;1.02;0.98;;;;;;;20.76;47.13;99961.36;1812424;78;21569;-71
2021/04/24 11:43:03;;;;;;;0.85;0.85;;;;;;;20.76;46.91;99957.30;1808975;78;21160;-72
2021/04/24 11:45:59;;;;;;;1.00;1.00;;;;;;;20.83;47.04;99954.53;1808981;78;21153;-70
2021/04/24 11:48:51;;;;;;;0.90;0.90;;;;;;;21.05;46.91;99961.55;1809044;78;21153;-72
2021/04/24 11:51:53;;;;;;;0.85;0.85;;;;;;;21.45;46.63;99955.00;1808612;78;22275;-71